sensor_id;sensor_type;location;lat;lon;timestamp;P1;durP1;ratioP1;P2;durP2;ratioP2
69417;SDS011;56610;48.872;2.400;2023-07-31T00:01:42;3.90;;;2.20;;
69417;SDS011;56610;48.872;2.400;2023-07-31T00:04:08;4.97;;;2.35;;
69417;SDS011;56610;48.872;2.400;2023-07-31T00:06:33;4.00;;;2.22;;
69417;SDS011;56610;48.872;2.400;2023-07-31T00:08:59;3.58;;;2.15;;
69417;SDS011;56610;48.872;2.400;2023-07-31T00:11:25;4.90;;;2.42;;
69417;SDS011;56610;48.872;2.400;2023-07-31T00:13:52;3.67;;;2.10;;
69417;SDS011;56610;48.872;2.400;2023-07-31T00:16:18;3.45;;;2.33;;
69417;SDS011;56610;48.872;2.400;2023-07-31T00:18:44;4.40;;;2.30;;
69417;SDS011;56610;48.872;2.400;2023-07-31T00:21:09;3.95;;;2.30;;
69417;SDS011;56610;48.872;2.400;2023-07-31T00:23:35;4.80;;;2.35;;
69417;SDS011;56610;48.872;2.400;2023-07-31T00:26:00;3.40;;;2.50;;
69417;SDS011;56610;48.872;2.400;2023-07-31T00:28:26;5.53;;;2.58;;
69417;SDS011;56610;48.872;2.400;2023-07-31T00:30:53;3.35;;;2.15;;
69417;SDS011;56610;48.872;2.400;2023-07-31T00:33:19;4.88;;;2.47;;
69417;SDS011;56610;48.872;2.400;2023-07-31T00:35:44;3.83;;;2.25;;
69417;SDS011;56610;48.872;2.400;2023-07-31T00:38:10;5.72;;;2.33;;
69417;SDS011;56610;48.872;2.400;2023-07-31T00:40:36;5.05;;;2.35;;
69417;SDS011;56610;48.872;2.400;2023-07-31T00:43:02;4.13;;;2.28;;
69417;SDS011;56610;48.872;2.400;2023-07-31T00:45:28;4.10;;;2.08;;
69417;SDS011;56610;48.872;2.400;2023-07-31T00:47:54;4.30;;;2.17;;
69417;SDS011;56610;48.872;2.400;2023-07-31T00:50:22;4.45;;;2.35;;
69417;SDS011;56610;48.872;2.400;2023-07-31T00:52:49;5.05;;;2.20;;
69417;SDS011;56610;48.872;2.400;2023-07-31T00:55:15;4.68;;;2.45;;
69417;SDS011;56610;48.872;2.400;2023-07-31T00:57:41;3.72;;;2.30;;
69417;SDS011;56610;48.872;2.400;2023-07-31T01:00:07;4.18;;;2.47;;
69417;SDS011;56610;48.872;2.400;2023-07-31T01:02:33;5.15;;;2.67;;
69417;SDS011;56610;48.872;2.400;2023-07-31T01:05:01;4.82;;;2.33;;
69417;SDS011;56610;48.872;2.400;2023-07-31T01:07:35;3.97;;;2.40;;
69417;SDS011;56610;48.872;2.400;2023-07-31T01:10:26;5.65;;;2.50;;
69417;SDS011;56610;48.872;2.400;2023-07-31T01:12:58;6.97;;;2.30;;
69417;SDS011;56610;48.872;2.400;2023-07-31T01:15:24;4.80;;;2.70;;
69417;SDS011;56610;48.872;2.400;2023-07-31T01:17:50;3.22;;;2.15;;
69417;SDS011;56610;48.872;2.400;2023-07-31T01:20:20;4.53;;;2.30;;
69417;SDS011;56610;48.872;2.400;2023-07-31T01:28:27;4.10;;;2.05;;
69417;SDS011;56610;48.872;2.400;2023-07-31T01:31:02;2.67;;;2.08;;
69417;SDS011;56610;48.872;2.400;2023-07-31T01:33:32;5.25;;;2.65;;
69417;SDS011;56610;48.872;2.400;2023-07-31T01:35:58;3.13;;;2.10;;
69417;SDS011;56610;48.872;2.400;2023-07-31T01:38:24;5.15;;;2.53;;
69417;SDS011;56610;48.872;2.400;2023-07-31T01:40:50;3.15;;;2.22;;
69417;SDS011;56610;48.872;2.400;2023-07-31T01:45:43;3.65;;;2.22;;
69417;SDS011;56610;48.872;2.400;2023-07-31T01:48:08;4.38;;;2.40;;
69417;SDS011;56610;48.872;2.400;2023-07-31T01:50:34;2.85;;;2.00;;
69417;SDS011;56610;48.872;2.400;2023-07-31T01:52:59;3.28;;;2.00;;
69417;SDS011;56610;48.872;2.400;2023-07-31T01:55:25;4.70;;;2.35;;
69417;SDS011;56610;48.872;2.400;2023-07-31T01:57:51;3.75;;;2.10;;
69417;SDS011;56610;48.872;2.400;2023-07-31T02:00:17;3.50;;;2.30;;
69417;SDS011;56610;48.872;2.400;2023-07-31T02:02:43;3.03;;;2.33;;
69417;SDS011;56610;48.872;2.400;2023-07-31T02:05:08;4.72;;;2.22;;
69417;SDS011;56610;48.872;2.400;2023-07-31T02:07:34;4.90;;;2.15;;
69417;SDS011;56610;48.872;2.400;2023-07-31T02:10:00;3.08;;;1.92;;
69417;SDS011;56610;48.872;2.400;2023-07-31T02:12:25;3.08;;;2.33;;
69417;SDS011;56610;48.872;2.400;2023-07-31T02:14:51;4.25;;;2.30;;
69417;SDS011;56610;48.872;2.400;2023-07-31T02:17:16;4.13;;;2.08;;
69417;SDS011;56610;48.872;2.400;2023-07-31T02:19:42;5.28;;;2.17;;
69417;SDS011;56610;48.872;2.400;2023-07-31T02:22:08;3.78;;;2.08;;
69417;SDS011;56610;48.872;2.400;2023-07-31T02:24:33;2.28;;;1.77;;
69417;SDS011;56610;48.872;2.400;2023-07-31T02:26:59;2.92;;;1.90;;
69417;SDS011;56610;48.872;2.400;2023-07-31T02:29:24;3.15;;;2.13;;
69417;SDS011;56610;48.872;2.400;2023-07-31T02:31:50;3.28;;;2.20;;
69417;SDS011;56610;48.872;2.400;2023-07-31T02:34:15;3.17;;;2.10;;
69417;SDS011;56610;48.872;2.400;2023-07-31T02:36:41;3.00;;;1.90;;
69417;SDS011;56610;48.872;2.400;2023-07-31T02:39:06;3.42;;;1.90;;
69417;SDS011;56610;48.872;2.400;2023-07-31T02:41:32;3.83;;;1.77;;
69417;SDS011;56610;48.872;2.400;2023-07-31T02:43:57;3.55;;;1.90;;
69417;SDS011;56610;48.872;2.400;2023-07-31T02:46:23;4.30;;;2.05;;
69417;SDS011;56610;48.872;2.400;2023-07-31T02:48:49;3.58;;;1.90;;
69417;SDS011;56610;48.872;2.400;2023-07-31T02:51:16;4.68;;;2.00;;
69417;SDS011;56610;48.872;2.400;2023-07-31T02:53:41;2.60;;;1.77;;
69417;SDS011;56610;48.872;2.400;2023-07-31T02:56:07;3.10;;;1.70;;
69417;SDS011;56610;48.872;2.400;2023-07-31T02:58:33;3.75;;;2.13;;
69417;SDS011;56610;48.872;2.400;2023-07-31T03:00:58;3.53;;;1.88;;
69417;SDS011;56610;48.872;2.400;2023-07-31T03:03:24;2.22;;;1.80;;
69417;SDS011;56610;48.872;2.400;2023-07-31T03:05:50;4.10;;;1.90;;
69417;SDS011;56610;48.872;2.400;2023-07-31T03:08:15;3.10;;;1.95;;
69417;SDS011;56610;48.872;2.400;2023-07-31T03:10:41;3.63;;;1.83;;
69417;SDS011;56610;48.872;2.400;2023-07-31T03:13:06;3.95;;;2.00;;
69417;SDS011;56610;48.872;2.400;2023-07-31T03:15:32;4.07;;;1.85;;
69417;SDS011;56610;48.872;2.400;2023-07-31T03:17:57;4.15;;;1.83;;
69417;SDS011;56610;48.872;2.400;2023-07-31T03:20:23;2.67;;;1.67;;
69417;SDS011;56610;48.872;2.400;2023-07-31T03:22:49;2.22;;;1.73;;
69417;SDS011;56610;48.872;2.400;2023-07-31T03:25:14;3.35;;;1.90;;
69417;SDS011;56610;48.872;2.400;2023-07-31T03:27:40;3.88;;;1.73;;
69417;SDS011;56610;48.872;2.400;2023-07-31T03:30:06;3.03;;;1.70;;
69417;SDS011;56610;48.872;2.400;2023-07-31T03:32:32;2.60;;;1.40;;
69417;SDS011;56610;48.872;2.400;2023-07-31T03:34:57;4.40;;;1.80;;
69417;SDS011;56610;48.872;2.400;2023-07-31T03:37:23;3.90;;;1.88;;
69417;SDS011;56610;48.872;2.400;2023-07-31T03:39:48;2.00;;;1.52;;
69417;SDS011;56610;48.872;2.400;2023-07-31T03:42:14;2.92;;;1.92;;
69417;SDS011;56610;48.872;2.400;2023-07-31T03:44:40;2.08;;;1.58;;
69417;SDS011;56610;48.872;2.400;2023-07-31T03:47:05;4.25;;;1.60;;
69417;SDS011;56610;48.872;2.400;2023-07-31T03:49:31;3.95;;;1.80;;
69417;SDS011;56610;48.872;2.400;2023-07-31T03:51:56;2.53;;;1.60;;
69417;SDS011;56610;48.872;2.400;2023-07-31T03:54:22;2.92;;;1.73;;
69417;SDS011;56610;48.872;2.400;2023-07-31T03:56:47;2.40;;;1.70;;
69417;SDS011;56610;48.872;2.400;2023-07-31T03:59:14;2.70;;;1.90;;
69417;SDS011;56610;48.872;2.400;2023-07-31T04:01:40;2.85;;;1.90;;
69417;SDS011;56610;48.872;2.400;2023-07-31T04:04:05;2.25;;;1.50;;
69417;SDS011;56610;48.872;2.400;2023-07-31T04:06:31;2.30;;;1.98;;
69417;SDS011;56610;48.872;2.400;2023-07-31T04:08:57;2.65;;;1.70;;
69417;SDS011;56610;48.872;2.400;2023-07-31T04:11:22;3.05;;;1.60;;
69417;SDS011;56610;48.872;2.400;2023-07-31T04:13:48;3.08;;;1.98;;
69417;SDS011;56610;48.872;2.400;2023-07-31T04:16:14;2.95;;;1.77;;
69417;SDS011;56610;48.872;2.400;2023-07-31T04:18:39;2.95;;;1.98;;
69417;SDS011;56610;48.872;2.400;2023-07-31T04:21:05;4.18;;;1.90;;
69417;SDS011;56610;48.872;2.400;2023-07-31T04:23:30;3.45;;;2.00;;
69417;SDS011;56610;48.872;2.400;2023-07-31T04:25:56;3.03;;;2.20;;
69417;SDS011;56610;48.872;2.400;2023-07-31T04:28:21;3.30;;;2.20;;
69417;SDS011;56610;48.872;2.400;2023-07-31T04:30:47;4.50;;;1.80;;
69417;SDS011;56610;48.872;2.400;2023-07-31T04:33:12;4.05;;;1.92;;
69417;SDS011;56610;48.872;2.400;2023-07-31T04:35:38;4.65;;;1.90;;
69417;SDS011;56610;48.872;2.400;2023-07-31T04:38:04;3.53;;;2.15;;
69417;SDS011;56610;48.872;2.400;2023-07-31T04:40:29;2.85;;;2.10;;
69417;SDS011;56610;48.872;2.400;2023-07-31T04:42:55;4.43;;;2.20;;
69417;SDS011;56610;48.872;2.400;2023-07-31T04:45:21;4.25;;;2.17;;
69417;SDS011;56610;48.872;2.400;2023-07-31T04:47:46;3.63;;;2.22;;
69417;SDS011;56610;48.872;2.400;2023-07-31T04:50:12;4.10;;;2.50;;
69417;SDS011;56610;48.872;2.400;2023-07-31T04:52:37;4.57;;;2.47;;
69417;SDS011;56610;48.872;2.400;2023-07-31T04:55:03;4.97;;;2.50;;
69417;SDS011;56610;48.872;2.400;2023-07-31T04:57:31;5.88;;;2.78;;
69417;SDS011;56610;48.872;2.400;2023-07-31T04:59:57;4.93;;;2.47;;
69417;SDS011;56610;48.872;2.400;2023-07-31T05:02:23;5.90;;;2.60;;
69417;SDS011;56610;48.872;2.400;2023-07-31T05:04:49;4.93;;;2.60;;
69417;SDS011;56610;48.872;2.400;2023-07-31T05:07:15;5.63;;;2.58;;
69417;SDS011;56610;48.872;2.400;2023-07-31T05:09:42;4.35;;;2.55;;
69417;SDS011;56610;48.872;2.400;2023-07-31T05:12:07;5.32;;;2.92;;
69417;SDS011;56610;48.872;2.400;2023-07-31T05:14:33;5.35;;;2.72;;
69417;SDS011;56610;48.872;2.400;2023-07-31T05:16:58;5.78;;;2.85;;
69417;SDS011;56610;48.872;2.400;2023-07-31T05:19:24;4.07;;;2.70;;
69417;SDS011;56610;48.872;2.400;2023-07-31T05:21:49;5.38;;;3.30;;
69417;SDS011;56610;48.872;2.400;2023-07-31T05:24:15;4.75;;;2.85;;
69417;SDS011;56610;48.872;2.400;2023-07-31T05:26:41;5.18;;;3.03;;
69417;SDS011;56610;48.872;2.400;2023-07-31T05:29:06;6.38;;;3.17;;
69417;SDS011;56610;48.872;2.400;2023-07-31T05:31:32;5.53;;;3.10;;
69417;SDS011;56610;48.872;2.400;2023-07-31T05:33:57;6.00;;;2.97;;
69417;SDS011;56610;48.872;2.400;2023-07-31T05:36:23;7.45;;;3.20;;
69417;SDS011;56610;48.872;2.400;2023-07-31T05:38:49;4.78;;;3.10;;
69417;SDS011;56610;48.872;2.400;2023-07-31T05:41:15;4.90;;;3.15;;
69417;SDS011;56610;48.872;2.400;2023-07-31T05:43:41;5.75;;;3.38;;
69417;SDS011;56610;48.872;2.400;2023-07-31T05:46:07;5.55;;;3.53;;
69417;SDS011;56610;48.872;2.400;2023-07-31T05:48:34;5.40;;;3.22;;
69417;SDS011;56610;48.872;2.400;2023-07-31T05:50:59;6.13;;;3.47;;
69417;SDS011;56610;48.872;2.400;2023-07-31T05:53:25;5.32;;;3.40;;
69417;SDS011;56610;48.872;2.400;2023-07-31T05:55:51;7.60;;;3.78;;
69417;SDS011;56610;48.872;2.400;2023-07-31T05:58:16;6.47;;;3.78;;
69417;SDS011;56610;48.872;2.400;2023-07-31T06:00:42;5.95;;;3.45;;
69417;SDS011;56610;48.872;2.400;2023-07-31T06:03:07;8.35;;;3.60;;
69417;SDS011;56610;48.872;2.400;2023-07-31T06:05:33;7.25;;;3.90;;
69417;SDS011;56610;48.872;2.400;2023-07-31T06:07:59;6.63;;;4.10;;
69417;SDS011;56610;48.872;2.400;2023-07-31T06:10:24;8.05;;;4.07;;
69417;SDS011;56610;48.872;2.400;2023-07-31T06:12:50;5.80;;;3.33;;
69417;SDS011;56610;48.872;2.400;2023-07-31T06:15:16;7.32;;;3.88;;
69417;SDS011;56610;48.872;2.400;2023-07-31T06:17:44;8.23;;;4.15;;
69417;SDS011;56610;48.872;2.400;2023-07-31T06:20:09;7.75;;;4.15;;
69417;SDS011;56610;48.872;2.400;2023-07-31T06:22:35;6.78;;;4.05;;
69417;SDS011;56610;48.872;2.400;2023-07-31T06:25:01;8.43;;;4.35;;
69417;SDS011;56610;48.872;2.400;2023-07-31T06:27:26;7.20;;;4.20;;
69417;SDS011;56610;48.872;2.400;2023-07-31T06:29:52;8.88;;;4.10;;
69417;SDS011;56610;48.872;2.400;2023-07-31T06:32:17;8.98;;;4.50;;
69417;SDS011;56610;48.872;2.400;2023-07-31T06:34:43;6.43;;;4.28;;
69417;SDS011;56610;48.872;2.400;2023-07-31T06:37:09;8.25;;;4.32;;
69417;SDS011;56610;48.872;2.400;2023-07-31T06:39:34;9.23;;;4.68;;
69417;SDS011;56610;48.872;2.400;2023-07-31T06:42:00;6.93;;;4.15;;
69417;SDS011;56610;48.872;2.400;2023-07-31T06:44:25;8.63;;;4.03;;
69417;SDS011;56610;48.872;2.400;2023-07-31T06:46:51;7.82;;;4.25;;
69417;SDS011;56610;48.872;2.400;2023-07-31T06:49:16;6.93;;;3.90;;
69417;SDS011;56610;48.872;2.400;2023-07-31T06:51:42;8.05;;;3.88;;
69417;SDS011;56610;48.872;2.400;2023-07-31T06:54:09;10.80;;;4.35;;
69417;SDS011;56610;48.872;2.400;2023-07-31T06:56:34;8.40;;;4.18;;
69417;SDS011;56610;48.872;2.400;2023-07-31T06:59:00;9.13;;;4.38;;
69417;SDS011;56610;48.872;2.400;2023-07-31T07:01:25;9.38;;;4.40;;
69417;SDS011;56610;48.872;2.400;2023-07-31T07:03:52;7.45;;;4.35;;
69417;SDS011;56610;48.872;2.400;2023-07-31T07:06:18;8.13;;;3.83;;
69417;SDS011;56610;48.872;2.400;2023-07-31T07:08:44;6.90;;;4.30;;
69417;SDS011;56610;48.872;2.400;2023-07-31T07:11:09;7.22;;;4.03;;
69417;SDS011;56610;48.872;2.400;2023-07-31T07:13:35;6.75;;;4.30;;
69417;SDS011;56610;48.872;2.400;2023-07-31T07:16:01;8.32;;;4.82;;
69417;SDS011;56610;48.872;2.400;2023-07-31T07:18:26;8.75;;;4.70;;
69417;SDS011;56610;48.872;2.400;2023-07-31T07:20:53;12.90;;;5.05;;
69417;SDS011;56610;48.872;2.400;2023-07-31T07:23:19;5.97;;;4.03;;
69417;SDS011;56610;48.872;2.400;2023-07-31T07:25:46;9.70;;;4.40;;
69417;SDS011;56610;48.872;2.400;2023-07-31T07:28:12;6.00;;;3.58;;
69417;SDS011;56610;48.872;2.400;2023-07-31T07:30:38;8.40;;;4.70;;
69417;SDS011;56610;48.872;2.400;2023-07-31T07:33:04;10.18;;;4.80;;
69417;SDS011;56610;48.872;2.400;2023-07-31T07:35:30;8.38;;;4.40;;
69417;SDS011;56610;48.872;2.400;2023-07-31T07:37:58;9.88;;;3.95;;
69417;SDS011;56610;48.872;2.400;2023-07-31T07:40:23;9.20;;;4.47;;
69417;SDS011;56610;48.872;2.400;2023-07-31T07:42:49;6.75;;;4.10;;
69417;SDS011;56610;48.872;2.400;2023-07-31T07:45:15;8.70;;;4.10;;
69417;SDS011;56610;48.872;2.400;2023-07-31T07:47:41;8.27;;;4.55;;
69417;SDS011;56610;48.872;2.400;2023-07-31T07:50:07;11.35;;;4.53;;
69417;SDS011;56610;48.872;2.400;2023-07-31T07:52:33;7.43;;;4.40;;
69417;SDS011;56610;48.872;2.400;2023-07-31T07:54:59;6.63;;;4.47;;
69417;SDS011;56610;48.872;2.400;2023-07-31T07:57:25;8.55;;;4.20;;
69417;SDS011;56610;48.872;2.400;2023-07-31T07:59:51;8.80;;;4.20;;
69417;SDS011;56610;48.872;2.400;2023-07-31T08:02:16;6.60;;;4.05;;
69417;SDS011;56610;48.872;2.400;2023-07-31T08:04:42;6.43;;;4.50;;
69417;SDS011;56610;48.872;2.400;2023-07-31T08:07:08;7.80;;;3.80;;
69417;SDS011;56610;48.872;2.400;2023-07-31T08:09:36;8.95;;;4.07;;
69417;SDS011;56610;48.872;2.400;2023-07-31T08:12:01;7.88;;;4.05;;
69417;SDS011;56610;48.872;2.400;2023-07-31T08:14:28;8.15;;;4.05;;
69417;SDS011;56610;48.872;2.400;2023-07-31T08:16:55;6.55;;;3.80;;
69417;SDS011;56610;48.872;2.400;2023-07-31T08:19:21;6.80;;;3.88;;
69417;SDS011;56610;48.872;2.400;2023-07-31T08:21:46;7.72;;;4.03;;
69417;SDS011;56610;48.872;2.400;2023-07-31T08:24:12;7.47;;;3.90;;
69417;SDS011;56610;48.872;2.400;2023-07-31T08:26:37;7.78;;;4.22;;
69417;SDS011;56610;48.872;2.400;2023-07-31T08:29:03;6.72;;;3.65;;
69417;SDS011;56610;48.872;2.400;2023-07-31T08:31:29;7.65;;;4.05;;
69417;SDS011;56610;48.872;2.400;2023-07-31T08:33:54;7.32;;;4.00;;
69417;SDS011;56610;48.872;2.400;2023-07-31T08:36:20;9.25;;;4.20;;
69417;SDS011;56610;48.872;2.400;2023-07-31T08:38:46;6.28;;;4.22;;
69417;SDS011;56610;48.872;2.400;2023-07-31T08:41:12;6.82;;;4.07;;
69417;SDS011;56610;48.872;2.400;2023-07-31T08:43:42;6.95;;;3.80;;
69417;SDS011;56610;48.872;2.400;2023-07-31T08:46:10;7.05;;;3.95;;
69417;SDS011;56610;48.872;2.400;2023-07-31T08:48:35;8.55;;;4.15;;
69417;SDS011;56610;48.872;2.400;2023-07-31T08:51:03;9.40;;;4.05;;
69417;SDS011;56610;48.872;2.400;2023-07-31T08:53:29;7.38;;;3.58;;
69417;SDS011;56610;48.872;2.400;2023-07-31T08:55:54;7.10;;;3.75;;
69417;SDS011;56610;48.872;2.400;2023-07-31T08:58:23;7.53;;;3.72;;
69417;SDS011;56610;48.872;2.400;2023-07-31T09:00:49;6.95;;;3.50;;
69417;SDS011;56610;48.872;2.400;2023-07-31T09:03:16;5.95;;;3.38;;
69417;SDS011;56610;48.872;2.400;2023-07-31T09:05:44;7.07;;;3.58;;
69417;SDS011;56610;48.872;2.400;2023-07-31T09:08:11;14.57;;;8.02;;
69417;SDS011;56610;48.872;2.400;2023-07-31T09:10:41;8.52;;;5.28;;
69417;SDS011;56610;48.872;2.400;2023-07-31T09:13:08;8.60;;;4.30;;
69417;SDS011;56610;48.872;2.400;2023-07-31T09:15:34;5.90;;;3.65;;
69417;SDS011;56610;48.872;2.400;2023-07-31T09:18:01;5.95;;;3.45;;
69417;SDS011;56610;48.872;2.400;2023-07-31T09:20:27;6.65;;;3.83;;
69417;SDS011;56610;48.872;2.400;2023-07-31T09:22:53;8.25;;;3.65;;
69417;SDS011;56610;48.872;2.400;2023-07-31T09:25:24;5.65;;;3.63;;
69417;SDS011;56610;48.872;2.400;2023-07-31T09:27:57;7.65;;;3.75;;
69417;SDS011;56610;48.872;2.400;2023-07-31T09:30:27;16.80;;;12.75;;
69417;SDS011;56610;48.872;2.400;2023-07-31T09:33:00;6.80;;;3.92;;
69417;SDS011;56610;48.872;2.400;2023-07-31T09:35:29;8.07;;;3.47;;
69417;SDS011;56610;48.872;2.400;2023-07-31T09:37:57;8.70;;;3.85;;
69417;SDS011;56610;48.872;2.400;2023-07-31T09:40:29;5.70;;;3.38;;
69417;SDS011;56610;48.872;2.400;2023-07-31T09:45:23;9.68;;;3.88;;
69417;SDS011;56610;48.872;2.400;2023-07-31T09:47:49;8.82;;;4.32;;
69417;SDS011;56610;48.872;2.400;2023-07-31T09:50:15;6.03;;;4.05;;
69417;SDS011;56610;48.872;2.400;2023-07-31T09:52:41;8.00;;;4.45;;
69417;SDS011;56610;48.872;2.400;2023-07-31T09:55:07;7.75;;;3.97;;
69417;SDS011;56610;48.872;2.400;2023-07-31T09:57:37;6.15;;;3.63;;
69417;SDS011;56610;48.872;2.400;2023-07-31T10:00:06;8.48;;;3.83;;
69417;SDS011;56610;48.872;2.400;2023-07-31T10:02:34;5.07;;;3.65;;
69417;SDS011;56610;48.872;2.400;2023-07-31T10:05:02;7.45;;;3.50;;
69417;SDS011;56610;48.872;2.400;2023-07-31T10:09:57;6.30;;;4.00;;
69417;SDS011;56610;48.872;2.400;2023-07-31T10:12:25;8.70;;;4.40;;
69417;SDS011;56610;48.872;2.400;2023-07-31T10:14:55;7.78;;;3.72;;
69417;SDS011;56610;48.872;2.400;2023-07-31T10:17:24;5.45;;;3.58;;
69417;SDS011;56610;48.872;2.400;2023-07-31T10:19:50;6.60;;;3.33;;
69417;SDS011;56610;48.872;2.400;2023-07-31T10:22:16;7.20;;;3.88;;
69417;SDS011;56610;48.872;2.400;2023-07-31T10:24:46;5.68;;;3.72;;
69417;SDS011;56610;48.872;2.400;2023-07-31T10:27:13;10.52;;;3.90;;
69417;SDS011;56610;48.872;2.400;2023-07-31T10:29:38;6.05;;;3.50;;
69417;SDS011;56610;48.872;2.400;2023-07-31T10:32:06;6.40;;;3.75;;
69417;SDS011;56610;48.872;2.400;2023-07-31T10:34:35;7.10;;;3.85;;
69417;SDS011;56610;48.872;2.400;2023-07-31T10:39:55;5.78;;;3.88;;
69417;SDS011;56610;48.872;2.400;2023-07-31T10:42:32;10.35;;;4.28;;
69417;SDS011;56610;48.872;2.400;2023-07-31T10:45:03;7.03;;;3.65;;
69417;SDS011;56610;48.872;2.400;2023-07-31T10:47:29;8.18;;;4.25;;
69417;SDS011;56610;48.872;2.400;2023-07-31T10:52:52;6.32;;;3.72;;
69417;SDS011;56610;48.872;2.400;2023-07-31T10:55:29;6.85;;;3.78;;
69417;SDS011;56610;48.872;2.400;2023-07-31T10:58:10;4.57;;;3.53;;
69417;SDS011;56610;48.872;2.400;2023-07-31T11:00:38;6.28;;;3.60;;
69417;SDS011;56610;48.872;2.400;2023-07-31T11:03:09;5.82;;;3.58;;
69417;SDS011;56610;48.872;2.400;2023-07-31T11:05:43;6.68;;;3.47;;
69417;SDS011;56610;48.872;2.400;2023-07-31T11:08:28;6.63;;;3.28;;
69417;SDS011;56610;48.872;2.400;2023-07-31T11:13:30;6.10;;;3.55;;
69417;SDS011;56610;48.872;2.400;2023-07-31T11:16:04;6.43;;;3.80;;
69417;SDS011;56610;48.872;2.400;2023-07-31T11:18:29;7.13;;;4.05;;
69417;SDS011;56610;48.872;2.400;2023-07-31T11:20:55;5.63;;;3.85;;
69417;SDS011;56610;48.872;2.400;2023-07-31T11:23:21;7.28;;;4.53;;
69417;SDS011;56610;48.872;2.400;2023-07-31T11:25:47;10.75;;;5.18;;
69417;SDS011;56610;48.872;2.400;2023-07-31T11:28:13;8.73;;;4.55;;
69417;SDS011;56610;48.872;2.400;2023-07-31T11:30:41;8.10;;;4.47;;
69417;SDS011;56610;48.872;2.400;2023-07-31T11:33:08;7.05;;;4.53;;
69417;SDS011;56610;48.872;2.400;2023-07-31T11:35:41;7.22;;;4.47;;
69417;SDS011;56610;48.872;2.400;2023-07-31T11:38:32;8.48;;;4.68;;
69417;SDS011;56610;48.872;2.400;2023-07-31T11:40:58;7.70;;;4.80;;
69417;SDS011;56610;48.872;2.400;2023-07-31T11:43:27;7.20;;;4.82;;
69417;SDS011;56610;48.872;2.400;2023-07-31T11:45:57;9.52;;;5.82;;
69417;SDS011;56610;48.872;2.400;2023-07-31T11:48:24;7.57;;;4.78;;
69417;SDS011;56610;48.872;2.400;2023-07-31T11:50:57;7.50;;;4.50;;
69417;SDS011;56610;48.872;2.400;2023-07-31T11:53:28;10.38;;;5.53;;
69417;SDS011;56610;48.872;2.400;2023-07-31T11:56:03;8.38;;;4.80;;
69417;SDS011;56610;48.872;2.400;2023-07-31T11:58:34;9.50;;;4.80;;
69417;SDS011;56610;48.872;2.400;2023-07-31T12:01:01;7.50;;;4.35;;
69417;SDS011;56610;48.872;2.400;2023-07-31T12:03:27;9.25;;;4.55;;
69417;SDS011;56610;48.872;2.400;2023-07-31T12:05:53;7.60;;;4.32;;
69417;SDS011;56610;48.872;2.400;2023-07-31T12:08:23;8.32;;;4.43;;
69417;SDS011;56610;48.872;2.400;2023-07-31T12:10:52;8.43;;;4.88;;
69417;SDS011;56610;48.872;2.400;2023-07-31T12:13:20;7.00;;;4.57;;
69417;SDS011;56610;48.872;2.400;2023-07-31T12:15:55;9.77;;;4.50;;
69417;SDS011;56610;48.872;2.400;2023-07-31T12:18:22;6.85;;;3.97;;
69417;SDS011;56610;48.872;2.400;2023-07-31T12:20:53;7.37;;;4.73;;
69417;SDS011;56610;48.872;2.400;2023-07-31T12:23:20;7.90;;;4.50;;
69417;SDS011;56610;48.872;2.400;2023-07-31T12:26:02;7.38;;;4.47;;
69417;SDS011;56610;48.872;2.400;2023-07-31T12:28:28;6.28;;;3.88;;
69417;SDS011;56610;48.872;2.400;2023-07-31T12:30:57;7.80;;;4.65;;
69417;SDS011;56610;48.872;2.400;2023-07-31T12:33:29;7.47;;;4.32;;
69417;SDS011;56610;48.872;2.400;2023-07-31T12:36:00;8.70;;;4.40;;
69417;SDS011;56610;48.872;2.400;2023-07-31T12:38:28;7.55;;;3.92;;
69417;SDS011;56610;48.872;2.400;2023-07-31T12:40:53;7.95;;;4.28;;
69417;SDS011;56610;48.872;2.400;2023-07-31T12:43:19;8.35;;;4.03;;
69417;SDS011;56610;48.872;2.400;2023-07-31T12:45:44;5.63;;;3.65;;
69417;SDS011;56610;48.872;2.400;2023-07-31T12:48:10;5.43;;;3.88;;
69417;SDS011;56610;48.872;2.400;2023-07-31T12:50:36;6.20;;;4.00;;
69417;SDS011;56610;48.872;2.400;2023-07-31T12:53:02;4.65;;;3.33;;
69417;SDS011;56610;48.872;2.400;2023-07-31T12:55:28;7.68;;;3.67;;
69417;SDS011;56610;48.872;2.400;2023-07-31T12:57:55;7.82;;;4.10;;
69417;SDS011;56610;48.872;2.400;2023-07-31T13:00:21;6.43;;;3.70;;
69417;SDS011;56610;48.872;2.400;2023-07-31T13:02:46;6.82;;;3.97;;
69417;SDS011;56610;48.872;2.400;2023-07-31T13:05:12;8.50;;;4.28;;
69417;SDS011;56610;48.872;2.400;2023-07-31T13:07:38;5.95;;;3.67;;
69417;SDS011;56610;48.872;2.400;2023-07-31T13:10:04;6.65;;;3.78;;
69417;SDS011;56610;48.872;2.400;2023-07-31T13:12:31;6.00;;;4.03;;
69417;SDS011;56610;48.872;2.400;2023-07-31T13:14:56;7.30;;;3.65;;
69417;SDS011;56610;48.872;2.400;2023-07-31T13:17:22;4.65;;;3.58;;
69417;SDS011;56610;48.872;2.400;2023-07-31T13:19:48;5.60;;;3.90;;
69417;SDS011;56610;48.872;2.400;2023-07-31T13:22:13;7.55;;;4.10;;
69417;SDS011;56610;48.872;2.400;2023-07-31T13:24:39;5.90;;;3.38;;
69417;SDS011;56610;48.872;2.400;2023-07-31T13:27:04;6.45;;;3.47;;
69417;SDS011;56610;48.872;2.400;2023-07-31T13:29:30;6.80;;;3.90;;
69417;SDS011;56610;48.872;2.400;2023-07-31T13:31:57;6.35;;;3.72;;
69417;SDS011;56610;48.872;2.400;2023-07-31T13:34:22;6.35;;;3.67;;
69417;SDS011;56610;48.872;2.400;2023-07-31T13:36:48;8.30;;;3.70;;
69417;SDS011;56610;48.872;2.400;2023-07-31T13:39:13;5.85;;;3.30;;
69417;SDS011;56610;48.872;2.400;2023-07-31T13:41:39;8.18;;;4.22;;
69417;SDS011;56610;48.872;2.400;2023-07-31T13:44:05;7.05;;;3.70;;
69417;SDS011;56610;48.872;2.400;2023-07-31T13:46:30;6.78;;;4.25;;
69417;SDS011;56610;48.872;2.400;2023-07-31T13:48:57;6.30;;;4.03;;
69417;SDS011;56610;48.872;2.400;2023-07-31T13:51:24;7.35;;;3.47;;
69417;SDS011;56610;48.872;2.400;2023-07-31T13:53:50;5.43;;;3.30;;
69417;SDS011;56610;48.872;2.400;2023-07-31T13:56:15;6.50;;;3.58;;
69417;SDS011;56610;48.872;2.400;2023-07-31T13:58:41;7.13;;;3.55;;
69417;SDS011;56610;48.872;2.400;2023-07-31T14:01:07;7.03;;;3.70;;
69417;SDS011;56610;48.872;2.400;2023-07-31T14:03:32;6.82;;;3.63;;
69417;SDS011;56610;48.872;2.400;2023-07-31T14:05:58;5.43;;;3.75;;
69417;SDS011;56610;48.872;2.400;2023-07-31T14:08:24;4.70;;;3.03;;
69417;SDS011;56610;48.872;2.400;2023-07-31T14:10:49;7.60;;;3.47;;
69417;SDS011;56610;48.872;2.400;2023-07-31T14:13:15;5.82;;;3.50;;
69417;SDS011;56610;48.872;2.400;2023-07-31T14:18:29;6.18;;;3.00;;
69417;SDS011;56610;48.872;2.400;2023-07-31T14:20:55;4.63;;;3.42;;
69417;SDS011;56610;48.872;2.400;2023-07-31T14:23:20;5.88;;;3.22;;
69417;SDS011;56610;48.872;2.400;2023-07-31T14:25:46;6.55;;;3.53;;
69417;SDS011;56610;48.872;2.400;2023-07-31T14:28:12;4.78;;;2.95;;
69417;SDS011;56610;48.872;2.400;2023-07-31T14:30:38;5.47;;;3.30;;
69417;SDS011;56610;48.872;2.400;2023-07-31T14:33:03;4.80;;;2.80;;
69417;SDS011;56610;48.872;2.400;2023-07-31T14:35:29;4.72;;;3.38;;
69417;SDS011;56610;48.872;2.400;2023-07-31T14:37:55;5.93;;;3.10;;
69417;SDS011;56610;48.872;2.400;2023-07-31T14:40:20;6.45;;;3.10;;
69417;SDS011;56610;48.872;2.400;2023-07-31T14:42:46;6.22;;;3.35;;
69417;SDS011;56610;48.872;2.400;2023-07-31T14:45:11;4.63;;;3.20;;
69417;SDS011;56610;48.872;2.400;2023-07-31T14:47:37;4.60;;;3.40;;
69417;SDS011;56610;48.872;2.400;2023-07-31T14:50:03;8.18;;;3.53;;
69417;SDS011;56610;48.872;2.400;2023-07-31T14:52:29;4.57;;;3.40;;
69417;SDS011;56610;48.872;2.400;2023-07-31T14:54:54;6.40;;;3.08;;
69417;SDS011;56610;48.872;2.400;2023-07-31T14:57:20;5.43;;;3.35;;
69417;SDS011;56610;48.872;2.400;2023-07-31T14:59:46;5.22;;;3.42;;
69417;SDS011;56610;48.872;2.400;2023-07-31T15:02:12;6.65;;;2.85;;
69417;SDS011;56610;48.872;2.400;2023-07-31T15:04:38;5.97;;;3.20;;
69417;SDS011;56610;48.872;2.400;2023-07-31T15:07:04;6.85;;;3.75;;
69417;SDS011;56610;48.872;2.400;2023-07-31T15:09:30;5.22;;;3.00;;